createdAt,value
2019-02-06T00:01:41.933Z,22.77
2019-02-06T00:04:09.453Z,20.35
2019-02-06T00:06:37.004Z,30.65
2019-02-06T00:09:07.599Z,25.15
2019-02-06T00:11:35.382Z,20.75
2019-02-06T00:14:03.116Z,27.00
2019-02-06T00:16:30.575Z,23.98
2019-02-06T00:18:58.067Z,25.08
2019-02-06T00:21:25.547Z,24.67
2019-02-06T00:23:53.439Z,27.07
2019-02-06T00:26:20.931Z,29.95
2019-02-06T00:28:48.423Z,23.80
2019-02-06T00:31:15.966Z,30.05
2019-02-06T00:33:43.477Z,26.48
2019-02-06T00:36:10.966Z,25.88
2019-02-06T00:38:38.438Z,23.45
2019-02-06T00:41:06.249Z,22.30
2019-02-06T00:43:33.784Z,22.90
2019-02-06T00:46:01.421Z,19.37
2019-02-06T00:48:28.945Z,29.80
2019-02-06T00:50:56.448Z,22.17
2019-02-06T00:53:23.950Z,25.55
2019-02-06T00:55:51.421Z,23.38
2019-02-06T00:58:19.329Z,25.92
2019-02-06T01:00:46.885Z,21.02
2019-02-06T01:03:15.162Z,25.32
2019-02-06T01:05:42.749Z,25.37
2019-02-06T01:08:10.593Z,25.70
2019-02-06T01:10:38.049Z,25.82
2019-02-06T01:13:05.623Z,23.55
2019-02-06T01:15:33.107Z,25.10
2019-02-06T01:18:00.604Z,23.35
2019-02-06T01:20:28.130Z,22.00
2019-02-06T01:22:55.664Z,19.57
2019-02-06T01:25:23.164Z,26.33
2019-02-06T01:27:50.671Z,27.87
2019-02-06T01:30:20.840Z,24.80
2019-02-06T01:32:48.352Z,25.40
2019-02-06T01:35:16.149Z,22.87
2019-02-06T01:37:43.674Z,23.00
2019-02-06T01:40:15.471Z,20.23
2019-02-06T01:42:43.014Z,27.60
2019-02-06T01:45:12.372Z,20.88
2019-02-06T01:47:39.910Z,24.05
2019-02-06T01:50:09.974Z,28.05
2019-02-06T01:52:37.651Z,23.27
2019-02-06T01:55:06.230Z,22.40
2019-02-06T01:57:33.803Z,21.73
2019-02-06T02:00:01.270Z,27.58
2019-02-06T02:02:28.752Z,24.30
2019-02-06T02:04:56.243Z,20.05
2019-02-06T02:07:23.719Z,27.82
2019-02-06T02:09:51.595Z,21.70
2019-02-06T02:12:19.134Z,22.40
2019-02-06T02:14:46.595Z,28.67
2019-02-06T02:17:14.069Z,22.65
2019-02-06T02:19:41.651Z,22.15
2019-02-06T02:22:09.133Z,19.98
2019-02-06T02:24:36.606Z,23.57
2019-02-06T02:27:04.505Z,22.07
2019-02-06T02:29:31.987Z,20.25
2019-02-06T02:31:59.549Z,19.02
2019-02-06T02:34:27.088Z,21.97
2019-02-06T02:36:54.552Z,20.65
2019-02-06T02:39:22.030Z,23.73
2019-02-06T02:41:49.540Z,26.48
2019-02-06T02:44:17.313Z,26.17
2019-02-06T02:46:44.776Z,18.60
2019-02-06T02:49:12.282Z,17.17
2019-02-06T02:51:39.789Z,18.12
2019-02-06T02:54:07.574Z,20.90
2019-02-06T02:56:35.048Z,18.35
2019-02-06T02:59:02.565Z,22.22
2019-02-06T03:01:31.668Z,23.67
2019-02-06T03:04:03.734Z,20.95
2019-02-06T03:06:31.259Z,23.42
2019-02-06T03:08:58.731Z,21.55
2019-02-06T03:11:26.231Z,21.37
2019-02-06T03:13:53.691Z,21.35
2019-02-06T03:16:21.176Z,19.23
2019-02-06T03:18:48.955Z,20.20
2019-02-06T03:21:16.425Z,21.07
2019-02-06T03:23:44.006Z,17.32
2019-02-06T03:26:11.468Z,24.37
2019-02-06T03:28:38.941Z,19.45
2019-02-06T03:31:06.429Z,18.70
2019-02-06T03:33:33.978Z,21.25
2019-02-06T03:36:01.831Z,20.50
2019-02-06T03:38:29.352Z,18.50
2019-02-06T03:40:56.813Z,19.17
2019-02-06T03:43:24.278Z,20.50
2019-02-06T03:45:51.789Z,17.23
2019-02-06T03:48:19.250Z,16.75
2019-02-06T03:50:46.729Z,20.50
2019-02-06T03:53:14.243Z,18.00
2019-02-06T03:55:41.914Z,18.35
2019-02-06T03:58:09.308Z,20.43
2019-02-06T04:00:36.803Z,18.27
2019-02-06T04:03:04.371Z,22.10
2019-02-06T04:05:31.863Z,17.05
2019-02-06T04:07:59.360Z,17.65
2019-02-06T04:10:26.836Z,19.52
2019-02-06T04:12:54.612Z,21.25
2019-02-06T04:15:22.108Z,17.17
2019-02-06T04:17:49.584Z,17.45
2019-02-06T04:20:17.498Z,21.37
2019-02-06T04:22:44.960Z,19.42
2019-02-06T04:25:13.576Z,18.17
2019-02-06T04:27:41.033Z,22.65
2019-02-06T04:30:10.683Z,19.27
2019-02-06T04:32:38.294Z,15.83
2019-02-06T04:35:07.483Z,17.20
2019-02-06T04:37:34.954Z,17.52
2019-02-06T04:40:02.451Z,19.80
2019-02-06T04:42:29.851Z,18.77
2019-02-06T04:44:57.319Z,19.75
2019-02-06T04:47:25.100Z,17.77
2019-02-06T04:49:52.568Z,22.60
2019-02-06T04:52:20.058Z,17.25
2019-02-06T04:54:47.518Z,20.65
2019-02-06T04:57:14.993Z,15.90
2019-02-06T04:59:42.490Z,15.68
2019-02-06T05:02:09.971Z,20.12
2019-02-06T05:04:37.706Z,19.32
2019-02-06T05:07:05.198Z,20.40
2019-02-06T05:09:32.683Z,21.90
2019-02-06T05:12:00.145Z,19.17
2019-02-06T05:14:27.642Z,18.42
2019-02-06T05:16:55.104Z,16.23
2019-02-06T05:19:22.622Z,14.07
2019-02-06T05:21:50.079Z,15.35
2019-02-06T05:24:17.765Z,17.52
2019-02-06T05:26:45.277Z,13.90
2019-02-06T05:29:12.728Z,16.15
2019-02-06T05:31:40.198Z,22.45
2019-02-06T05:34:07.711Z,16.90
2019-02-06T05:36:35.185Z,17.20
2019-02-06T05:39:03.018Z,20.40
2019-02-06T05:41:30.699Z,17.50
2019-02-06T05:43:58.189Z,18.75
2019-02-06T05:46:25.666Z,15.50
2019-02-06T05:48:53.154Z,16.87
2019-02-06T05:51:20.661Z,17.00
2019-02-06T05:53:48.126Z,13.35
2019-02-06T05:56:15.683Z,20.12
2019-02-06T05:58:43.319Z,15.53
2019-02-06T06:01:11.170Z,20.60
2019-02-06T06:03:38.632Z,16.67
2019-02-06T06:06:06.144Z,16.97
2019-02-06T06:08:33.616Z,14.07
2019-02-06T06:11:01.080Z,19.35
2019-02-06T06:13:28.577Z,19.42
2019-02-06T06:15:56.028Z,19.27
2019-02-06T06:18:23.542Z,16.82
2019-02-06T06:20:51.299Z,22.50
2019-02-06T06:23:18.770Z,16.48
2019-02-06T06:25:46.268Z,15.93
2019-02-06T06:28:13.747Z,27.55
2019-02-06T06:30:41.275Z,16.48
2019-02-06T06:33:08.773Z,15.38
2019-02-06T06:35:36.244Z,24.90
2019-02-06T06:38:03.895Z,22.00
2019-02-06T06:40:31.372Z,15.50
2019-02-06T06:42:58.849Z,20.95
2019-02-06T06:45:26.311Z,21.07
2019-02-06T06:47:53.799Z,21.42
2019-02-06T06:50:22.170Z,22.95
2019-02-06T06:52:49.640Z,30.40
2019-02-06T06:55:17.128Z,17.98
2019-02-06T06:57:45.100Z,21.12
2019-02-06T07:00:14.375Z,17.92
2019-02-06T07:02:41.856Z,18.48
2019-02-06T07:05:10.571Z,18.52
2019-02-06T07:07:38.024Z,16.27
2019-02-06T07:10:07.115Z,22.50
2019-02-06T07:12:34.747Z,17.10
2019-02-06T07:15:02.219Z,22.45
2019-02-06T07:17:29.696Z,27.40
2019-02-06T07:19:57.207Z,17.27
2019-02-06T07:22:24.776Z,17.62
2019-02-06T07:24:52.332Z,17.42
2019-02-06T07:27:21.053Z,17.45
2019-02-06T07:29:48.696Z,21.17
2019-02-06T07:32:16.266Z,16.82
2019-02-06T07:34:43.824Z,20.02
2019-02-06T07:37:11.308Z,20.60
2019-02-06T07:39:38.772Z,20.90
2019-02-06T07:42:06.358Z,26.15
2019-02-06T07:44:33.902Z,18.80
2019-02-06T07:47:01.397Z,15.98
2019-02-06T07:49:29.175Z,22.40
2019-02-06T07:51:56.747Z,16.95
2019-02-06T07:54:24.307Z,17.12
2019-02-06T07:56:51.790Z,20.55
2019-02-06T07:59:19.338Z,19.27
2019-02-06T08:01:46.880Z,16.07
2019-02-06T08:04:14.417Z,17.85
2019-02-06T08:06:42.204Z,23.60
2019-02-06T08:09:09.820Z,32.05
2019-02-06T08:11:37.295Z,22.65
2019-02-06T08:14:05.399Z,24.00
2019-02-06T08:16:32.900Z,29.42
2019-02-06T08:19:00.386Z,24.92
2019-02-06T08:21:27.859Z,24.43
2019-02-06T08:23:55.491Z,20.65
2019-02-06T08:26:23.166Z,26.70
2019-02-06T08:28:50.745Z,19.70
2019-02-06T08:31:18.342Z,24.23
2019-02-06T08:33:45.843Z,17.20
2019-02-06T08:36:13.335Z,26.90
2019-02-06T08:38:47.969Z,24.87
2019-02-06T08:41:10.033Z,23.70
2019-02-06T08:43:37.496Z,19.10
2019-02-06T08:46:04.993Z,19.40
2019-02-06T08:48:32.477Z,21.47
2019-02-06T08:50:59.947Z,23.73
2019-02-06T08:53:27.454Z,27.27
2019-02-06T08:55:54.987Z,23.70
2019-02-06T08:58:22.467Z,26.70
2019-02-06T09:00:50.232Z,20.80
2019-02-06T09:03:17.794Z,34.50
2019-02-06T09:05:45.253Z,27.70
2019-02-06T09:08:12.732Z,23.77
2019-02-06T09:10:40.297Z,29.57
2019-02-06T09:13:07.787Z,26.57
2019-02-06T09:15:35.272Z,24.07
2019-02-06T09:18:03.249Z,23.77
2019-02-06T09:20:30.730Z,26.10
2019-02-06T09:22:59.318Z,31.03
2019-02-06T09:25:27.699Z,33.93
2019-02-06T09:27:55.460Z,26.67
2019-02-06T09:30:26.716Z,26.13
2019-02-06T09:32:54.727Z,27.23
2019-02-06T09:35:22.596Z,29.93
2019-02-06T09:37:50.282Z,25.47
2019-02-06T09:40:18.979Z,24.23
2019-02-06T09:42:46.453Z,22.40
2019-02-06T09:45:15.117Z,27.87
2019-02-06T09:47:42.686Z,25.37
2019-02-06T09:50:17.607Z,33.23
2019-02-06T09:52:45.102Z,26.10
2019-02-06T09:55:12.778Z,31.50
2019-02-06T09:57:40.275Z,29.40
2019-02-06T10:00:09.288Z,29.03
2019-02-06T10:02:36.779Z,32.23
2019-02-06T10:05:06.050Z,30.97
2019-02-06T10:07:33.533Z,29.13
2019-02-06T10:10:01.059Z,32.40
2019-02-06T10:12:28.613Z,28.10
2019-02-06T10:14:56.086Z,25.13
2019-02-06T10:17:23.638Z,30.00
2019-02-06T10:19:51.116Z,34.70
2019-02-06T10:22:18.685Z,35.23
2019-02-06T10:24:46.179Z,33.13
2019-02-06T10:27:14.036Z,29.33
2019-02-06T10:29:41.577Z,28.97
2019-02-06T10:32:09.055Z,35.43
2019-02-06T10:34:36.518Z,32.50
2019-02-06T10:37:04.307Z,29.50
2019-02-06T10:39:34.551Z,31.97
2019-02-06T10:42:00.906Z,24.23
2019-02-06T10:44:29.111Z,27.00
2019-02-06T10:46:56.545Z,28.03
2019-02-06T10:49:24.017Z,28.73
2019-02-06T10:51:51.612Z,23.47
2019-02-06T10:54:19.144Z,27.63
2019-02-06T10:56:46.610Z,16.27
2019-02-06T10:59:14.094Z,23.20
2019-02-06T11:01:42.001Z,23.87
2019-02-06T11:04:09.506Z,18.23
2019-02-06T11:06:37.059Z,16.50
2019-02-06T11:09:05.920Z,15.73
2019-02-06T11:11:33.466Z,13.17
2019-02-06T11:14:00.888Z,14.43
2019-02-06T11:16:28.740Z,22.47
2019-02-06T11:18:56.268Z,19.00
2019-02-06T11:21:23.802Z,12.10
2019-02-06T11:23:51.970Z,11.50
2019-02-06T11:26:19.582Z,22.70
2019-02-06T11:28:47.035Z,14.80
2019-02-06T11:31:14.523Z,12.63
2019-02-06T11:33:41.990Z,18.30
2019-02-06T11:36:09.451Z,14.57
2019-02-06T11:38:37.068Z,15.20
2019-02-06T11:41:04.553Z,14.10
2019-02-06T11:43:32.313Z,14.10
2019-02-06T11:46:00.320Z,13.43
2019-02-06T11:48:27.848Z,12.77
2019-02-06T11:50:55.416Z,11.23
2019-02-06T11:53:23.097Z,14.03
2019-02-06T11:55:52.210Z,12.63
2019-02-06T11:58:19.697Z,9.70
2019-02-06T12:00:48.992Z,13.33
2019-02-06T12:03:16.494Z,10.90
2019-02-06T12:05:43.973Z,9.53
2019-02-06T12:08:12.643Z,14.10
2019-02-06T12:10:40.430Z,10.70
2019-02-06T12:13:08.471Z,10.37
2019-02-06T12:15:37.809Z,11.93
2019-02-06T12:18:06.003Z,11.40
2019-02-06T12:20:33.444Z,10.10
2019-02-06T12:23:00.914Z,12.50
2019-02-06T12:25:28.526Z,17.27
2019-02-06T12:27:56.597Z,7.97
2019-02-06T12:30:25.958Z,10.17
2019-02-06T12:32:53.459Z,10.20
2019-02-06T12:35:20.936Z,15.07
2019-02-06T12:37:48.582Z,12.03
2019-02-06T12:40:21.633Z,8.77
2019-02-06T12:42:45.455Z,10.27
2019-02-06T12:45:14.515Z,11.00
2019-02-06T12:47:41.992Z,15.27
2019-02-06T12:50:11.165Z,9.60
2019-02-06T12:52:38.698Z,11.10
2019-02-06T12:55:07.629Z,17.70
2019-02-06T12:57:37.439Z,10.37
2019-02-06T13:00:05.835Z,15.83
2019-02-06T13:02:33.309Z,12.90
2019-02-06T13:05:00.770Z,11.77
2019-02-06T13:07:28.663Z,12.40
2019-02-06T13:09:56.168Z,9.93
2019-02-06T13:12:23.590Z,8.87
2019-02-06T13:14:51.088Z,11.77
2019-02-06T13:17:18.609Z,12.90
2019-02-06T13:19:46.069Z,10.43
2019-02-06T13:22:13.655Z,13.37
2019-02-06T13:24:41.132Z,12.63
2019-02-06T13:27:08.601Z,14.93
2019-02-06T13:29:36.095Z,11.00
2019-02-06T13:32:03.586Z,10.00
2019-02-06T13:34:31.105Z,14.33
2019-02-06T13:36:58.599Z,13.43
2019-02-06T13:39:26.056Z,13.73
2019-02-06T13:41:53.518Z,11.17
2019-02-06T13:44:21.019Z,11.50
2019-02-06T13:46:53.149Z,12.70
2019-02-06T13:49:17.681Z,10.50
2019-02-06T13:51:45.175Z,14.67
2019-02-06T13:54:12.628Z,12.40
2019-02-06T13:56:40.099Z,13.03
2019-02-06T13:59:07.621Z,12.53
2019-02-06T14:01:35.392Z,11.37
2019-02-06T14:04:02.850Z,11.87
2019-02-06T14:06:30.327Z,11.67
2019-02-06T14:08:57.911Z,11.23
2019-02-06T14:11:25.387Z,12.93
2019-02-06T14:13:52.899Z,16.73
2019-02-06T14:16:20.377Z,13.57
2019-02-06T14:18:48.271Z,13.73
2019-02-06T14:21:15.759Z,14.17
2019-02-06T14:23:44.695Z,16.13
2019-02-06T14:26:14.225Z,17.93
2019-02-06T14:28:55.627Z,16.70
2019-02-06T14:31:28.269Z,13.20
2019-02-06T14:33:57.283Z,15.70
2019-02-06T14:36:42.745Z,19.60
2019-02-06T14:39:11.685Z,16.03
2019-02-06T14:41:43.323Z,15.00
2019-02-06T14:44:24.615Z,17.10
2019-02-06T14:46:54.080Z,19.67
2019-02-06T14:49:28.793Z,16.40
2019-02-06T14:52:15.702Z,17.87
2019-02-06T14:54:59.668Z,18.50
2019-02-06T14:57:31.323Z,16.77
2019-02-06T15:00:00.662Z,15.07
2019-02-06T15:02:32.426Z,16.20
2019-02-06T15:05:01.353Z,19.27
2019-02-06T15:07:30.292Z,17.97
2019-02-06T15:09:59.265Z,17.13
2019-02-06T15:12:28.188Z,20.43
2019-02-06T15:15:00.309Z,20.27
2019-02-06T15:17:45.845Z,16.30
2019-02-06T15:20:17.767Z,15.80
2019-02-06T15:23:03.194Z,22.17
2019-02-06T15:25:35.104Z,20.73
2019-02-06T15:28:19.361Z,16.90
2019-02-06T15:30:48.376Z,18.10
2019-02-06T15:33:20.629Z,20.40
2019-02-06T15:35:52.645Z,16.80
2019-02-06T15:38:38.691Z,16.93
2019-02-06T15:41:07.659Z,19.47
2019-02-06T15:43:46.105Z,19.87
2019-02-06T15:46:24.285Z,17.77
2019-02-06T15:49:08.208Z,24.43
2019-02-06T15:51:37.650Z,25.60
2019-02-06T15:54:06.584Z,20.73
2019-02-06T15:56:35.667Z,19.10
2019-02-06T15:59:08.202Z,25.53
2019-02-06T16:01:40.120Z,24.40
2019-02-06T16:04:19.752Z,17.77
2019-02-06T16:06:59.836Z,20.33
2019-02-06T16:09:28.773Z,19.47
2019-02-06T16:11:57.749Z,16.80
2019-02-06T16:14:35.970Z,21.47
2019-02-06T16:17:07.814Z,18.30
2019-02-06T16:20:04.652Z,17.53
2019-02-06T16:22:40.474Z,18.73
2019-02-06T16:25:09.516Z,25.13
2019-02-06T16:27:50.710Z,27.53
2019-02-06T16:30:22.924Z,22.70
2019-02-06T16:32:57.796Z,31.77
2019-02-06T16:35:43.289Z,24.50
2019-02-06T16:38:24.421Z,21.50
2019-02-06T16:40:53.431Z,21.23
2019-02-06T16:43:25.152Z,22.80
2019-02-06T16:45:54.122Z,18.63
2019-02-06T16:48:29.110Z,20.40
2019-02-06T16:50:58.038Z,21.80
2019-02-06T16:53:29.694Z,25.73
2019-02-06T16:56:07.745Z,21.03
2019-02-06T16:58:42.407Z,24.77
2019-02-06T17:01:20.612Z,18.63
2019-02-06T17:03:55.314Z,21.30
2019-02-06T17:06:42.646Z,18.07
2019-02-06T17:09:29.668Z,18.60
2019-02-06T17:12:15.441Z,21.53
2019-02-06T17:15:00.941Z,20.37
2019-02-06T17:17:32.884Z,22.90
2019-02-06T17:20:17.182Z,23.13
2019-02-06T17:22:49.161Z,25.70
2019-02-06T17:25:20.954Z,20.97
2019-02-06T17:27:52.929Z,21.20
2019-02-06T17:30:21.965Z,17.23
2019-02-06T17:32:53.714Z,19.37
2019-02-06T17:35:39.348Z,23.50
2019-02-06T17:38:11.324Z,18.97
2019-02-06T17:40:43.297Z,21.30
2019-02-06T17:43:12.359Z,20.67
2019-02-06T17:45:56.676Z,19.60
2019-02-06T17:48:44.115Z,22.50
2019-02-06T17:51:18.933Z,24.47
2019-02-06T17:53:56.641Z,23.87
2019-02-06T17:56:24.112Z,20.60
2019-02-06T17:58:51.988Z,27.60
2019-02-06T18:01:21.044Z,23.20
2019-02-06T18:03:49.016Z,28.80
2019-02-06T18:06:16.768Z,20.97
2019-02-06T18:08:44.269Z,18.27
2019-02-06T18:11:11.767Z,18.10
2019-02-06T18:13:39.300Z,21.60
2019-02-06T18:16:07.288Z,18.13
2019-02-06T18:18:34.842Z,24.17
2019-02-06T18:21:02.338Z,24.57
2019-02-06T18:23:29.912Z,20.00
2019-02-06T18:25:57.396Z,20.27
2019-02-06T18:28:25.063Z,24.10
2019-02-06T18:30:52.595Z,21.43
2019-02-06T18:33:20.137Z,21.50
2019-02-06T18:35:48.103Z,20.97
2019-02-06T18:38:15.708Z,22.97
2019-02-06T18:40:44.065Z,24.87
2019-02-06T18:43:11.595Z,24.17
2019-02-06T18:45:39.254Z,21.67
2019-02-06T18:48:07.646Z,22.83
2019-02-06T18:50:36.435Z,22.73
2019-02-06T18:53:04.531Z,21.47
2019-02-06T18:55:32.368Z,22.30
2019-02-06T18:57:59.832Z,28.73
2019-02-06T19:00:39.968Z,21.10
2019-02-06T19:03:08.988Z,20.83
2019-02-06T19:05:37.660Z,21.60
2019-02-06T19:08:05.968Z,27.60
2019-02-06T19:10:33.493Z,25.13
2019-02-06T19:13:01.273Z,27.60
2019-02-06T19:15:29.239Z,18.80
2019-02-06T19:17:56.728Z,18.60
2019-02-06T19:20:24.532Z,19.80
2019-02-06T19:22:52.455Z,19.87
2019-02-06T19:25:20.063Z,22.03
2019-02-06T19:27:47.646Z,18.03
2019-02-06T19:30:16.660Z,20.73
2019-02-06T19:32:44.547Z,21.47
2019-02-06T19:35:12.450Z,22.00
2019-02-06T19:37:40.046Z,23.80
2019-02-06T19:40:09.062Z,19.50
2019-02-06T19:42:36.554Z,20.43
2019-02-06T19:45:05.004Z,18.60
2019-02-06T19:47:32.542Z,16.47
2019-02-06T19:50:00.026Z,26.13
2019-02-06T19:52:27.540Z,22.27
2019-02-06T19:54:55.315Z,20.53
2019-02-06T19:57:22.895Z,18.87
2019-02-06T19:59:50.493Z,22.03
2019-02-06T20:02:18.434Z,24.23
2019-02-06T20:04:46.061Z,23.43
2019-02-06T20:07:13.641Z,22.50
2019-02-06T20:09:41.291Z,22.50
2019-02-06T20:12:08.908Z,21.80
2019-02-06T20:14:36.458Z,20.80
2019-02-06T20:17:04.330Z,24.27
2019-02-06T20:19:31.933Z,26.00
2019-02-06T20:21:59.405Z,24.10
2019-02-06T20:24:26.964Z,27.98
2019-02-06T20:26:54.455Z,25.40
2019-02-06T20:29:22.015Z,25.30
2019-02-06T20:31:49.489Z,23.90
2019-02-06T20:34:17.069Z,21.37
2019-02-06T20:36:44.917Z,26.23
2019-02-06T20:39:12.548Z,23.03
2019-02-06T20:41:40.113Z,22.80
2019-02-06T20:44:07.603Z,26.03
2019-02-06T20:46:35.120Z,25.23
2019-02-06T20:49:02.608Z,21.57
2019-02-06T20:51:30.076Z,20.03
2019-02-06T20:53:57.744Z,19.40
2019-02-06T20:56:25.822Z,22.27
2019-02-06T20:58:53.409Z,18.70
2019-02-06T21:01:20.991Z,18.37
2019-02-06T21:03:48.470Z,22.30
2019-02-06T21:06:16.016Z,20.57
2019-02-06T21:08:43.624Z,22.80
2019-02-06T21:11:11.108Z,19.80
2019-02-06T21:13:38.596Z,19.33
2019-02-06T21:16:06.480Z,20.50
2019-02-06T21:18:34.022Z,21.20
2019-02-06T21:21:01.562Z,24.90
2019-02-06T21:23:29.063Z,22.20
2019-02-06T21:25:56.601Z,23.43
2019-02-06T21:28:24.091Z,24.23
2019-02-06T21:30:51.776Z,21.93
2019-02-06T21:33:19.746Z,21.05
2019-02-06T21:35:47.285Z,22.97
2019-02-06T21:38:14.862Z,25.33
2019-02-06T21:40:42.288Z,20.03
2019-02-06T21:43:09.875Z,22.90
2019-02-06T21:45:38.342Z,36.03
2019-02-06T21:48:06.276Z,22.23
2019-02-06T21:50:34.244Z,24.45
2019-02-06T21:53:01.759Z,30.68
2019-02-06T21:55:29.350Z,23.27
2019-02-06T21:57:56.833Z,22.80
2019-02-06T22:00:25.883Z,24.82
2019-02-06T22:02:53.379Z,24.12
2019-02-06T22:05:20.955Z,24.85
2019-02-06T22:07:48.909Z,26.00
2019-02-06T22:10:17.864Z,23.92
2019-02-06T22:12:45.407Z,24.60
2019-02-06T22:15:17.396Z,27.75
2019-02-06T22:17:44.870Z,26.10
2019-02-06T22:20:12.673Z,29.65
2019-02-06T22:22:42.901Z,28.40
2019-02-06T22:25:09.940Z,25.05
2019-02-06T22:27:37.418Z,24.20
2019-02-06T22:30:06.388Z,25.50
2019-02-06T22:32:33.908Z,24.20
2019-02-06T22:35:01.397Z,26.87
2019-02-06T22:37:28.934Z,25.52
2019-02-06T22:39:56.753Z,24.05
2019-02-06T22:42:24.312Z,26.48
2019-02-06T22:44:51.876Z,23.90
2019-02-06T22:47:19.377Z,30.72
2019-02-06T22:49:46.865Z,25.68
2019-02-06T22:52:14.856Z,23.60
2019-02-06T22:54:42.361Z,27.42
2019-02-06T22:57:10.160Z,25.77
2019-02-06T22:59:37.635Z,26.42
2019-02-06T23:02:05.643Z,22.13
2019-02-06T23:04:33.148Z,23.70
2019-02-06T23:07:00.608Z,29.50
2019-02-06T23:09:28.136Z,22.93
2019-02-06T23:11:55.639Z,28.32
2019-02-06T23:14:23.619Z,21.82
2019-02-06T23:16:51.132Z,29.90
2019-02-06T23:19:18.625Z,36.03
2019-02-06T23:21:46.109Z,24.65
2019-02-06T23:24:13.675Z,27.60
2019-02-06T23:26:41.195Z,30.32
2019-02-06T23:29:08.681Z,26.07
2019-02-06T23:31:36.641Z,32.73
2019-02-06T23:34:04.354Z,25.23
2019-02-06T23:36:31.915Z,25.70
2019-02-06T23:38:59.496Z,25.45
2019-02-06T23:41:26.999Z,26.87
2019-02-06T23:43:54.568Z,31.25
2019-02-06T23:46:22.058Z,24.60
2019-02-06T23:48:49.870Z,28.17
2019-02-06T23:51:17.420Z,26.70
2019-02-06T23:53:45.040Z,24.40
2019-02-06T23:56:12.567Z,27.67
2019-02-06T23:58:40.127Z,26.23
